AU-0085 weather

Nambung Station Private Airstrip
Western Australia, Australia

Public forecast

Using degrees Celsius for public forecast. Weather courtesy of forecast.io.

METAR (pilot weather report)

Closest report is RAAF Base Pearce, 77.0 nm (142.6 km) SSE. Retrieved 2019/03/23 10:30 UTC (18 minutes ago):

YPEA 231030Z AUTO 21009KT 9999 // NCD 22/11 Q1014

TAF (pilot weather forecast)

Closest forecast is RAAF Base Pearce, 77.0 nm (142.6 km) SSE. Retrieved 2019/03/23 06:00 UTC (5 hours ago):

TAF YPEA 230431Z 2306/2324 12012KT CAVOK FM231200 18008KT CAVOK